Latest Weather Observations for Toowoomba

IDQ60801

Issued at 8:42 pm EST Thursday 20 September 2018 (issued every 10 minutes, with the page automatically refreshed every 10 minutes)

About weather observations | Map of weather stations | Latest weather observations for QLD | Other Formats
Station Details ID: 041529 Name: TOOWOOMBA AIRPORT Lat: -27.54 Lon: 151.91 Height: 640.9 m
Data from the previous 72 hours. | See also: Recent months at Toowoomba
Date/Time
EST
Temp
°C
App
Temp
°C
Dew
Point
°C
Rel
Hum
%
Delta-T
°C
Wind Press
QNH
hPa
Press
MSL
hPa
Rain since
9am
mm
Dir  Spd
km/h
Gust
km/h
Spd
kts
Gust
kts
20/08:30pm 12.5 6.5 -7.0 25 7.1 SW 17 22 9 12 1022.3 1020.5 0.0
20/08:00pm 12.8 6.7 -7.2 24 7.3 SW 17 24 9 13 1021.7 1020.0 0.0
20/07:30pm 13.8 7.2 -6.9 23 7.7 SW 20 28 11 15 1021.3 1019.6 0.0
20/07:00pm 14.3 6.9 -7.1 22 8.0 SW 24 32 13 17 1020.8 1019.0 0.0
20/06:30pm 15.2 7.4 -7.6 20 8.5 SW 26 35 14 19 1019.9 1018.2 0.0
20/06:00pm 16.1 7.9 -8.2 18 9.0 WSW 28 37 15 20 1019.4 1017.6 0.0
20/05:30pm 17.3 8.6 -8.7 16 9.7 WSW 30 43 16 23 1018.8 1017.0 0.0
20/05:00pm 18.3 9.1 -8.7 15 10.2 WSW 33 44 18 24 1018.0 1016.2 0.0
20/04:30pm 19.4 10.1 -9.7 13 10.9 WSW 33 44 18 24 1017.4 1015.6 0.0
20/04:00pm 20.3 11.2 -9.0 13 11.2 WSW 32 41 17 22 1017.1 1015.2 0.0
20/03:34pm 20.4 11.4 -8.0 14 11.1 WSW 32 50 17 27 1016.7 1014.9 0.0
20/03:30pm 20.5 11.3 -7.9 14 11.2 WSW 33 50 18 27 1016.7 1014.9 0.0
20/03:00pm 21.5 13.0 -7.1 14 11.5 W 30 44 16 24 1016.4 1014.6 0.0
20/02:30pm 21.8 13.5 -5.1 16 11.3 WSW 30 41 16 22 1016.4 1014.6 0.0
20/02:00pm 22.2 13.9 -4.8 16 11.4 WSW 30 43 16 23 1016.4 1014.6 0.0
20/01:30pm 22.3 14.4 -4.7 16 11.5 W 28 37 15 20 1016.5 1014.7 0.0
20/01:09pm 21.7 13.8 -5.2 16 11.3 WSW 28 46 15 25 1016.7 1014.9 0.0
20/01:00pm 22.0 14.0 -2.7 19 10.9 W 30 43 16 23 1016.7 1014.9 0.0
20/12:32pm 22.7 15.1 -2.1 19 11.1 W 28 48 15 26 1016.9 1015.0 0.0
20/12:30pm 22.0 14.6 -3.4 18 11.1 W 26 39 14 21 1016.9 1015.0 0.0
20/12:00pm 22.3 14.2 -3.1 18 11.1 W 30 48 16 26 1017.0 1015.1 0.0
20/11:52am 22.9 14.9 -2.6 18 11.4 W 30 48 16 26 1017.2 1015.4 0.0
20/11:30am 22.3 14.9 -0.4 22 10.5 W 28 39 15 21 1017.5 1015.7 0.0
20/11:00am 21.1 14.1 -0.8 23 9.9 WSW 26 41 14 22 1017.6 1015.8 0.0
20/10:30am 21.0 14.3 -0.9 23 9.9 WSW 24 37 13 20 1017.8 1016.0 0.0
20/10:00am 20.3 13.0 0.2 26 9.2 WSW 28 39 15 21 1017.8 1016.0 0.0
20/09:30am 20.3 13.8 0.2 26 9.3 WSW 24 33 13 18 1017.7 1015.9 0.0
20/09:00am 19.7 13.6 0.7 28 8.8 WSW 22 28 12 15 1017.7 1015.9 0.0
20/08:30am 18.0 12.7 3.1 37 7.1 W 20 26 11 14 1017.5 1015.7 0.0
20/08:00am 16.7 11.8 5.0 46 5.8 WSW 20 28 11 15 1017.3 1015.5 0.0
20/07:30am 15.4 12.1 7.9 61 3.9 W 15 19 8 10 1017.0 1015.1 0.0
20/07:00am 13.5 11.0 9.6 77 2.1 NW 13 13 7 7 1016.6 1014.8 0.0
20/06:30am 13.6 11.1 9.8 78 2.0 NW 13 19 7 10 1016.5 1014.7 0.0
20/06:00am 13.1 10.9 9.5 79 1.9 W 11 19 6 10 1016.3 1014.5 0.0
20/05:30am 13.5 11.3 9.4 76 2.2 NW 11 13 6 7 1015.9 1014.1 0.0
20/05:00am 14.1 11.2 9.5 74 2.4 NW 15 19 8 10 1015.5 1013.6 0.0
20/04:30am 14.8 12.2 9.4 70 2.9 WNW 13 19 7 10 1015.3 1013.4 0.0
20/04:00am 15.2 12.2 9.3 68 3.1 WNW 15 19 8 10 1015.0 1013.2 0.0
20/03:30am 15.5 12.6 9.6 68 3.2 NW 15 19 8 10 1014.7 1012.9 0.0
20/03:00am 15.2 13.1 9.6 69 3.0 NW 11 15 6 8 1014.6 1012.8 0.0
20/02:30am 15.1 13.5 10.1 72 2.7 W 9 11 5 6 1015.0 1013.2 0.0
20/02:00am 15.4 14.7 10.0 70 2.9 WSW 4 6 2 3 1015.3 1013.4 0.0
20/01:30am 16.0 12.8 9.9 67 3.3 WSW 17 30 9 16 1015.5 1013.6 0.0
20/01:00am 16.9 14.6 10.5 66 3.5 N 13 17 7 9 1015.0 1013.2 0.0
20/12:30am 15.6 13.6 11.6 77 2.2 NE 13 15 7 8 1015.6 1013.7 0.0
20/12:00am 15.8 14.3 11.8 77 2.2 ENE 11 15 6 8 1015.7 1013.8 0.0
 
Date/Time
EST
Temp
°C
App
Temp
°C
Dew
Point
°C
Rel
Hum
%
Delta-T
°C
Wind Press
QNH
hPa
Press
MSL
hPa
Rain since
9am
mm
Dir  Spd
km/h
Gust
km/h
Spd
kts
Gust
kts
19/11:30pm 15.9 13.3 11.9 77 2.2 ENE 17 20 9 11 1015.8 1014.0 0.0
19/11:00pm 15.7 12.6 11.7 77 2.2 E 19 20 10 11 1016.1 1014.3 0.0
19/10:30pm 16.6 13.9 11.7 73 2.8 ENE 17 22 9 12 1016.0 1014.2 0.0
19/10:00pm 17.0 14.8 12.1 73 2.8 E 15 19 8 10 1016.1 1014.3 0.0
19/09:30pm 17.9 16.6 12.4 70 3.1 E 11 13 6 7 1016.5 1014.7 0.0
19/09:00pm 18.2 16.4 12.0 67 3.5 E 13 17 7 9 1016.4 1014.6 0.0
19/08:30pm 18.5 15.8 11.8 65 3.8 E 17 19 9 10 1016.4 1014.6 0.0
19/08:00pm 18.7 15.9 11.3 62 4.2 E 17 19 9 10 1016.0 1014.2 0.0
19/07:30pm 19.6 16.7 9.8 53 5.4 E 15 17 8 9 1015.9 1014.1 0.0
19/07:00pm 20.2 18.0 6.2 40 7.2 NNE 7 13 4 7 1015.8 1014.0 0.0
19/06:30pm 22.4 19.4 5.8 34 8.6 NW 11 15 6 8 1015.6 1013.7 0.0
19/06:00pm 23.1 20.1 6.0 33 9.0 WNW 11 13 6 7 1015.4 1013.5 0.0
19/05:30pm 24.1 20.3 5.9 31 9.6 NW 15 20 8 11 1015.0 1013.2 0.0
19/05:00pm 25.2 20.9 5.4 28 10.4 WNW 17 26 9 14 1014.9 1013.1 0.0
19/04:30pm 25.0 19.7 5.2 28 10.3 W 22 37 12 20 1014.8 1013.0 0.0
19/04:00pm 25.9 21.1 4.4 25 11.1 W 19 33 10 18 1014.6 1012.8 0.0
19/03:30pm 26.5 22.5 4.9 25 11.3 WNW 15 28 8 15 1014.5 1012.7 0.0
19/03:00pm 25.6 22.5 7.2 31 10.0 NW 13 22 7 12 1014.6 1012.8 0.0
19/02:30pm 27.0 23.6 7.5 29 10.7 WNW 15 28 8 15 1014.7 1012.9 0.0
19/02:00pm 24.9 21.0 7.1 32 9.6 WNW 17 33 9 18 1015.5 1013.6 0.0
19/01:30pm 25.2 21.7 7.3 32 9.7 NNW 15 24 8 13 1015.9 1014.1 0.0
19/01:00pm 24.4 21.1 8.0 35 9.0 NNW 15 30 8 16 1016.2 1014.4 0.0
19/12:30pm 24.0 20.5 8.8 38 8.4 N 17 26 9 14 1016.9 1015.0 0.0
19/12:00pm 22.7 19.2 8.8 41 7.6 N 17 28 9 15 1017.6 1015.8 0.0
19/11:30am 21.8 18.1 8.0 41 7.4 N 17 26 9 14 1018.6 1016.8 0.0
19/11:00am 21.1 18.0 8.7 45 6.7 N 15 22 8 12 1019.0 1017.2 0.0
19/10:30am 20.0 17.2 8.7 48 6.1 NNE 13 20 7 11 1019.6 1017.8 0.0
19/10:00am 19.9 17.0 9.8 52 5.6 N 15 22 8 12 1020.0 1018.3 0.0
19/09:30am 18.2 15.6 9.5 57 4.7 E 13 20 7 11 1020.3 1018.5 0.0
19/09:00am 17.2 13.5 9.6 61 4.1 ENE 19 28 10 15 1020.0 1018.3 0.0
19/08:30am 16.4 12.7 9.3 63 3.8 ENE 19 24 10 13 1020.0 1018.3 0.0
19/08:00am 15.5 11.5 9.0 65 3.4 NE 20 26 11 14 1020.1 1018.4 0.0
19/07:30am 14.5 10.5 8.9 69 2.9 NNE 20 28 11 15 1020.3 1018.5 0.0
19/07:00am 13.1 9.2 9.4 78 1.9 NNE 20 26 11 14 1020.1 1018.4 0.0
19/06:30am 11.8 9.2 9.5 86 1.2 NE 13 17 7 9 1020.1 1018.4 0.0
19/06:00am 10.9 7.5 9.2 89 0.9 NE 17 20 9 11 1019.7 1017.9 0.0
19/05:30am 10.6 7.5 9.0 90 0.8 NE 15 17 8 9 1019.6 1017.8 0.0
19/05:00am 10.8 7.7 8.9 88 1.0 NE 15 22 8 12 1019.4 1017.6 0.0
19/04:30am 10.7 7.3 9.0 89 0.9 NE 17 24 9 13 1019.0 1017.2 0.0
19/04:00am 10.4 7.3 9.0 91 0.7 ENE 15 19 8 10 1019.0 1017.2 0.0
19/03:30am 10.3 6.8 8.7 90 0.8 ENE 17 22 9 12 1018.9 1017.1 0.0
19/03:00am 10.6 7.0 8.5 87 1.1 ENE 17 22 9 12 1018.9 1017.1 0.0
19/02:30am 11.0 7.1 8.6 85 1.2 ENE 19 22 10 12 1018.9 1017.1 0.0
19/02:00am 11.1 7.0 8.5 84 1.3 ENE 20 24 11 13 1019.1 1017.3 0.0
19/01:30am 11.6 7.1 8.6 82 1.5 ENE 22 30 12 16 1019.4 1017.6 0.0
19/01:00am 11.9 7.4 8.6 80 1.7 ENE 22 30 12 16 1019.7 1017.9 0.0
19/12:30am 11.7 6.8 8.6 81 1.6 ENE 24 32 13 17 1020.1 1018.4 0.0
19/12:00am 11.7 7.8 8.7 82 1.5 ENE 19 26 10 14 1020.5 1018.7 0.0
 
Date/Time
EST
Temp
°C
App
Temp
°C
Dew
Point
°C
Rel
Hum
%
Delta-T
°C
Wind Press
QNH
hPa
Press
MSL
hPa
Rain since
9am
mm
Dir  Spd
km/h
Gust
km/h
Spd
kts
Gust
kts
18/11:30pm 11.6 7.5 8.8 83 1.4 ENE 20 22 11 12 1020.9 1019.1 0.0
18/11:00pm 11.8 7.7 8.8 82 1.5 ENE 20 24 11 13 1021.0 1019.2 0.0
18/10:30pm 12.1 8.0 8.6 79 1.8 E 20 26 11 14 1021.0 1019.2 0.0
18/10:00pm 12.5 7.3 8.8 78 1.9 E 26 32 14 17 1020.9 1019.1 0.0
18/09:30pm 12.9 8.1 8.8 76 2.1 E 24 30 13 16 1020.8 1019.0 0.0
18/09:00pm 13.3 8.1 8.8 74 2.3 E 26 32 14 17 1020.8 1019.0 0.0
18/08:30pm 13.8 9.0 9.0 73 2.5 E 24 30 13 16 1020.6 1018.8 0.0
18/08:00pm 14.5 9.4 9.1 70 2.8 E 26 33 14 18 1020.7 1018.9 0.0
18/07:30pm 15.1 10.3 9.0 67 3.2 E 24 30 13 16 1020.4 1018.6 0.0
18/07:00pm 16.3 10.7 8.8 61 4.0 E 28 33 15 18 1020.1 1018.4 0.0
18/06:30pm 17.3 11.8 7.4 52 5.1 E 26 33 14 18 1019.8 1018.0 0.0
18/06:00pm 18.0 12.6 6.5 47 5.9 E 24 30 13 16 1019.5 1017.7 0.0
18/05:30pm 18.6 13.3 6.8 46 6.1 ESE 24 30 13 16 1019.5 1017.7 0.0
18/05:00pm 19.4 14.1 6.8 44 6.5 E 24 30 13 16 1019.3 1017.5 0.0
18/04:30pm 20.3 15.8 7.0 42 7.0 E 20 30 11 16 1019.0 1017.2 0.0
18/04:00pm 21.1 16.9 7.3 41 7.3 ENE 19 26 10 14 1019.1 1017.3 0.0
18/03:30pm 21.7 17.5 7.5 40 7.6 E 19 24 10 13 1019.3 1017.5 0.0
18/03:00pm 21.6 17.3 7.1 39 7.7 ENE 19 28 10 15 1019.5 1017.7 0.0
18/02:30pm 20.0 15.9 6.0 40 7.2 ENE 17 24 9 13 1019.9 1018.2 0.0
18/02:00pm 21.4 18.3 7.3 40 7.5 ENE 13 22 7 12 1020.4 1018.6 0.0
18/01:30pm 20.6 17.4 6.9 41 7.2 NNE 13 22 7 12 1020.8 1019.0 0.0
18/01:00pm 21.5 17.4 7.7 41 7.4 NE 19 30 10 16 1021.5 1019.8 0.0
18/12:30pm 20.6 17.1 7.2 42 7.1 E 15 20 8 11 1022.1 1020.3 0.0
18/12:00pm 18.9 15.0 7.0 46 6.2 ENE 17 26 9 14 1022.7 1021.0 0.0
18/11:30am 19.0 14.7 7.8 48 5.9 E 20 28 11 15 1023.2 1021.5 0.0
18/11:00am 18.4 14.4 8.1 51 5.4 ENE 19 28 10 15 1023.9 1022.1 0.0
18/10:30am 17.8 13.7 8.6 55 4.9 E 20 28 11 15 1024.5 1022.8 0.0
18/10:00am 16.9 13.1 9.1 60 4.2 ENE 19 24 10 13 1024.7 1023.0 0.0
18/09:30am 15.8 11.9 8.5 62 3.8 ENE 19 32 10 17 1024.9 1023.2 0.0
18/09:00am 14.9 10.4 8.6 66 3.3 NE 22 33 12 18 1025.0 1023.3 0.0
18/08:30am 14.2 9.4 8.8 70 2.8 NE 24 35 13 19 1025.0 1023.3 0.0
18/08:00am 13.2 8.0 8.9 75 2.2 ENE 26 35 14 19 1024.7 1023.0 0.0
18/07:30am 12.7 7.8 8.6 76 2.1 E 24 28 13 15 1024.4 1022.7 0.0
18/07:00am 11.4 6.9 8.6 83 1.4 E 22 28 12 15 1024.3 1022.6 0.0
18/06:30am 10.9 6.0 8.3 84 1.3 E 24 30 13 16 1024.0 1022.2 0.0
18/06:00am 10.5 5.2 8.3 86 1.1 E 26 32 14 17 1023.7 1021.9 0.0
18/05:30am 10.1 5.0 7.7 85 1.2 E 24 30 13 16 1023.6 1021.8 0.0
18/05:00am 10.2 4.3 7.4 83 1.4 E 28 33 15 18 1023.1 1021.4 0.0
18/04:30am 10.5 4.6 7.7 83 1.4 E 28 35 15 19 1022.9 1021.2 0.0
18/04:00am 10.4 4.0 6.9 79 1.7 E 30 35 16 19 1022.7 1021.0 0.0
18/03:30am 10.1 4.0 6.8 80 1.6 ESE 28 35 15 19 1022.8 1021.1 0.0
18/03:00am 10.0 3.9 6.7 80 1.6 ESE 28 33 15 18 1022.8 1021.1 0.0
18/02:30am 9.9 4.2 6.6 80 1.6 E 26 32 14 17 1022.6 1020.8 0.0
18/02:00am 10.0 4.3 6.5 79 1.7 E 26 35 14 19 1022.7 1021.0 0.0
18/01:30am 10.1 3.9 6.3 77 1.8 E 28 33 15 18 1022.8 1021.1 0.0
18/01:00am 10.3 3.4 6.3 76 1.9 E 32 41 17 22 1023.0 1021.3 0.0
18/12:30am 10.5 3.0 6.5 76 1.9 E 35 44 19 24 1023.1 1021.4 0.0
18/12:00am 10.6 3.6 6.7 77 1.9 E 33 54 18 29 1023.1 1021.4 0.0
 
Date/Time
EST
Temp
°C
App
Temp
°C
Dew
Point
°C
Rel
Hum
%
Delta-T
°C
Wind Press
QNH
hPa
Press
MSL
hPa
Rain since
9am
mm
Dir  Spd
km/h
Gust
km/h
Spd
kts
Gust
kts
17/11:53pm 10.7 3.3 6.6 76 2.0 E 35 54 19 29 1023.0 1021.3 0.0
17/11:30pm 11.1 3.5 6.0 71 2.5 E 35 48 19 26 1023.3 1021.6 0.0
17/11:00pm 11.0 4.2 7.5 79 1.7 E 33 46 18 25 1023.2 1021.5 0.0
17/10:30pm 11.0 4.2 7.9 81 1.6 E 33 46 18 25 1023.2 1021.5 0.0
17/10:00pm 11.1 3.9 7.6 79 1.7 E 35 50 19 27 1023.3 1021.6 0.0
17/09:30pm 11.5 4.7 7.6 77 2.0 E 33 43 18 23 1023.2 1021.5 0.0
17/09:00pm 11.8 5.1 7.5 75 2.1 E 32 43 17 23 1023.4 1021.7 0.0

Other Formats:

Comma delimited format used in spreadsheet applications
http://www.bom.gov.au/fwo/IDQ60801/IDQ60801.95551.axf

JavaScript Object Notation format (JSON) in row-major order
http://www.bom.gov.au/fwo/IDQ60801/IDQ60801.95551.json